Time;durP1;ratioP1;P1;durP2;ratioP2;P2;SDS_P1;SDS_P2;PMS_P1;PMS_P2;Temp;Humidity;BMP_temperature;BMP_pressure;BME280_temperature;BME280_humidity;BME280_pressure;Samples;Min_cycle;Max_cycle;Signal;HPM_P1;HPM_P2
2024/03/23 00:00:27;;;;;;;16.45;4.90;;;7.30;99.90;;;;;;4988325;28;20038;-80
2024/03/23 00:02:53;;;;;;;21.65;5.55;;;7.40;99.90;;;;;;4991699;28;20500;-80
2024/03/23 00:05:20;;;;;;;26.00;4.78;;;7.30;99.90;;;;;;4989905;28;20041;-79
2024/03/23 00:07:46;;;;;;;25.95;4.07;;;7.30;99.90;;;;;;4986226;28;20121;-80
2024/03/23 00:10:13;;;;;;;37.03;5.03;;;7.30;99.90;;;;;;4991480;28;20527;-79
2024/03/23 00:12:39;;;;;;;27.55;5.45;;;7.30;99.90;;;;;;4988379;28;20034;-79
2024/03/23 00:15:06;;;;;;;25.23;5.50;;;7.20;99.90;;;;;;4990975;28;20045;-80
2024/03/23 00:17:32;;;;;;;21.45;5.30;;;7.20;99.90;;;;;;4985323;28;20477;-80
2024/03/23 00:19:59;;;;;;;23.38;5.43;;;7.20;99.90;;;;;;4983229;28;20043;-80
2024/03/23 00:22:25;;;;;;;21.40;4.65;;;7.10;99.90;;;;;;4984745;28;20042;-80
2024/03/23 00:24:52;;;;;;;17.83;4.22;;;7.10;99.90;;;;;;4995372;28;20484;-80
2024/03/23 00:27:21;;;;;;;18.73;4.15;;;7.00;99.90;;;;;;4990562;28;20175;-81
2024/03/23 00:29:47;;;;;;;24.13;6.35;;;6.90;99.90;;;;;;4989502;28;20034;-80
2024/03/23 00:32:14;;;;;;;17.73;3.85;;;7.00;99.90;;;;;;4982754;28;20432;-80
2024/03/23 00:34:40;;;;;;;18.17;4.63;;;7.00;99.90;;;;;;4988837;28;20042;-80
2024/03/23 00:37:07;;;;;;;17.63;4.25;;;7.00;99.90;;;;;;4989996;28;20041;-80
2024/03/23 00:39:34;;;;;;;21.13;4.00;;;7.00;99.90;;;;;;4975183;28;20648;-81
2024/03/23 00:42:00;;;;;;;19.35;4.22;;;7.00;99.90;;;;;;4984099;28;20030;-80
2024/03/23 00:44:27;;;;;;;19.40;4.32;;;7.00;99.90;;;;;;4988629;28;20034;-81
2024/03/23 00:46:55;;;;;;;17.02;3.83;;;7.00;99.90;;;;;;4988261;28;20080;-80
2024/03/23 00:49:21;;;;;;;19.52;4.80;;;6.90;99.90;;;;;;4988545;28;20570;-80
2024/03/23 00:51:48;;;;;;;10.57;3.35;;;6.90;99.90;;;;;;4985811;28;20042;-81
2024/03/23 00:54:13;;;;;;;18.88;3.90;;;7.00;99.90;;;;;;4987889;28;20031;-80
2024/03/23 00:56:39;;;;;;;19.10;3.50;;;6.90;99.90;;;;;;4965128;28;20070;-80
2024/03/23 00:59:04;;;;;;;22.20;3.95;;;6.90;99.90;;;;;;4966871;28;20436;-80
2024/03/23 01:01:30;;;;;;;16.63;3.53;;;6.90;99.90;;;;;;4968529;28;20031;-81
2024/03/23 01:03:55;;;;;;;21.98;4.95;;;6.90;99.90;;;;;;4987804;28;20092;-80
2024/03/23 01:06:24;;;;;;;14.98;4.10;;;6.90;99.90;;;;;;4990586;28;20041;-80
2024/03/23 01:08:49;;;;;;;27.00;4.45;;;6.90;99.90;;;;;;4984220;28;20034;-80
2024/03/23 01:11:15;;;;;;;24.17;4.45;;;6.80;99.90;;;;;;4970795;28;20407;-80
2024/03/23 01:13:41;;;;;;;24.98;4.30;;;6.80;99.90;;;;;;4954623;28;20034;-80
2024/03/23 01:16:06;;;;;;;14.15;3.45;;;6.80;99.90;;;;;;4982712;28;20031;-80
2024/03/23 01:18:32;;;;;;;9.00;2.47;;;6.70;99.90;;;;;;4981874;28;20031;-80
2024/03/23 01:20:58;;;;;;;13.52;2.45;;;6.70;99.90;;;;;;4958297;28;20036;-80
2024/03/23 01:23:23;;;;;;;11.27;3.10;;;6.60;99.90;;;;;;4988087;28;20081;-79
2024/03/23 01:25:53;;;;;;;20.10;3.20;;;6.60;99.90;;;;;;4988848;28;20417;-80
2024/03/23 01:28:22;;;;;;;15.93;3.42;;;6.50;99.90;;;;;;4954256;28;20038;-80
2024/03/23 01:30:47;;;;;;;13.85;3.03;;;6.50;99.90;;;;;;4964740;28;20113;-79
2024/03/23 01:33:13;;;;;;;12.35;2.60;;;6.50;99.90;;;;;;4955685;28;20465;-80
2024/03/23 01:35:40;;;;;;;19.02;3.17;;;6.60;99.90;;;;;;4969524;28;20031;-80
2024/03/23 01:38:06;;;;;;;16.77;4.82;;;6.60;99.90;;;;;;4988811;28;20042;-80
2024/03/23 01:40:32;;;;;;;11.82;3.67;;;6.50;99.90;;;;;;4974088;28;20403;-80
2024/03/23 01:43:05;;;;;;;10.05;2.20;;;6.50;99.90;;;;;;4988125;28;20046;-80
2024/03/23 01:45:33;;;;;;;13.68;3.03;;;6.50;99.90;;;;;;4971468;28;20037;-80
2024/03/23 01:47:59;;;;;;;11.48;2.50;;;6.50;99.90;;;;;;4985219;28;20043;-80
2024/03/23 01:50:24;;;;;;;12.25;2.85;;;6.50;99.90;;;;;;4984893;28;20084;-80
2024/03/23 01:52:50;;;;;;;11.02;2.03;;;6.50;99.90;;;;;;4981581;28;20046;-80
2024/03/23 01:55:16;;;;;;;12.50;1.80;;;6.60;99.90;;;;;;4987467;28;20066;-80
2024/03/23 01:57:41;;;;;;;9.15;1.63;;;6.60;99.90;;;;;;4974648;28;20062;-80
2024/03/23 02:00:08;;;;;;;8.38;1.83;;;6.50;99.90;;;;;;4971321;28;20034;-80
2024/03/23 02:02:33;;;;;;;8.30;1.92;;;6.50;99.90;;;;;;4987070;28;20575;-80
2024/03/23 02:04:59;;;;;;;3.75;1.55;;;6.50;99.90;;;;;;4975238;28;20106;-80
2024/03/23 02:07:24;;;;;;;4.97;1.40;;;6.50;99.90;;;;;;4982358;28;20121;-80
2024/03/23 02:09:51;;;;;;;5.20;1.63;;;6.50;99.90;;;;;;4973782;28;20210;-80
2024/03/23 02:12:17;;;;;;;5.00;1.13;;;6.50;99.90;;;;;;4967287;28;20027;-79
2024/03/23 02:14:45;;;;;;;5.80;1.20;;;6.50;99.90;;;;;;4971525;28;20026;-80
2024/03/23 02:17:10;;;;;;;7.68;1.25;;;6.60;99.90;;;;;;4967789;28;20066;-80
2024/03/23 02:19:36;;;;;;;3.45;1.50;;;6.80;99.90;;;;;;4987307;28;20477;-80
2024/03/23 02:22:01;;;;;;;3.65;1.17;;;6.80;99.90;;;;;;4991432;28;20026;-80
2024/03/23 02:24:29;;;;;;;7.28;1.45;;;6.80;99.90;;;;;;4974955;28;20412;-80
2024/03/23 02:26:54;;;;;;;9.23;1.90;;;6.80;99.90;;;;;;4983175;28;20060;-80
2024/03/23 02:29:20;;;;;;;7.63;1.30;;;6.70;99.90;;;;;;4988086;28;20046;-79
2024/03/23 02:31:46;;;;;;;5.18;1.33;;;6.60;99.90;;;;;;4969645;28;20116;-81
2024/03/23 02:34:11;;;;;;;7.32;1.45;;;6.70;99.90;;;;;;4983583;28;20440;-80
2024/03/23 02:36:37;;;;;;;7.70;1.92;;;6.60;99.90;;;;;;4964180;28;20061;-79
2024/03/23 02:39:03;;;;;;;4.82;1.25;;;6.70;99.90;;;;;;4972498;28;20089;-81
2024/03/23 02:41:28;;;;;;;6.28;1.13;;;6.70;99.90;;;;;;4987324;28;20087;-80
2024/03/23 02:43:54;;;;;;;9.70;3.17;;;6.60;99.90;;;;;;4981852;28;20038;-80
2024/03/23 02:46:19;;;;;;;5.93;1.48;;;6.50;99.90;;;;;;4953410;28;20044;-80
2024/03/23 02:48:45;;;;;;;10.88;1.70;;;6.50;99.90;;;;;;4981905;28;20026;-80
2024/03/23 02:51:10;;;;;;;4.65;1.35;;;6.50;99.90;;;;;;4975587;28;20074;-80
2024/03/23 02:53:36;;;;;;;5.80;1.45;;;6.50;99.90;;;;;;4992984;28;20065;-80
2024/03/23 02:56:01;;;;;;;5.45;1.40;;;6.60;99.90;;;;;;4975884;28;20464;-80
2024/03/23 02:58:27;;;;;;;3.97;1.23;;;6.70;99.90;;;;;;4986749;28;20022;-80
2024/03/23 03:00:52;;;;;;;5.95;1.13;;;6.90;99.90;;;;;;4974532;28;20489;-80
2024/03/23 03:03:18;;;;;;;5.85;1.48;;;6.90;99.90;;;;;;4988212;28;20524;-80
2024/03/23 03:05:43;;;;;;;5.88;1.60;;;6.80;99.90;;;;;;4986100;28;20407;-80
2024/03/23 03:08:09;;;;;;;6.68;1.58;;;6.70;99.90;;;;;;4965008;28;20523;-80
2024/03/23 03:10:36;;;;;;;4.45;1.20;;;6.70;99.90;;;;;;4975516;28;20034;-80
2024/03/23 03:13:02;;;;;;;6.32;1.17;;;6.60;99.90;;;;;;4968748;28;20050;-80
2024/03/23 03:15:27;;;;;;;5.15;1.50;;;6.70;99.90;;;;;;4985123;28;20431;-80
2024/03/23 03:17:53;;;;;;;5.78;1.20;;;6.60;99.90;;;;;;4986733;28;20038;-80
2024/03/23 03:20:18;;;;;;;7.43;1.42;;;6.50;99.90;;;;;;4985830;28;20404;-80
2024/03/23 03:22:44;;;;;;;7.78;1.40;;;6.40;99.90;;;;;;4992047;28;20058;-80
2024/03/23 03:25:09;;;;;;;6.90;1.52;;;6.50;99.90;;;;;;4989633;28;20447;-81
2024/03/23 03:27:35;;;;;;;5.30;1.25;;;6.40;99.90;;;;;;4974755;28;20111;-80
2024/03/23 03:30:02;;;;;;;4.53;1.25;;;6.50;99.90;;;;;;4971076;28;20031;-80
2024/03/23 03:32:29;;;;;;;6.50;0.98;;;6.60;99.90;;;;;;4973152;28;20030;-81
2024/03/23 03:34:54;;;;;;;4.15;0.82;;;6.60;99.90;;;;;;4954928;28;20480;-79
2024/03/23 03:37:20;;;;;;;10.50;1.95;;;6.50;99.90;;;;;;4989380;28;20100;-80
2024/03/23 03:39:45;;;;;;;4.13;1.10;;;6.60;99.90;;;;;;4985003;28;20625;-80
2024/03/23 03:42:11;;;;;;;5.78;0.90;;;6.50;99.90;;;;;;4986667;28;20620;-79
2024/03/23 03:44:37;;;;;;;5.00;1.20;;;6.60;99.90;;;;;;4992696;28;20057;-80
2024/03/23 03:47:02;;;;;;;8.20;1.10;;;6.70;99.90;;;;;;4971797;28;20574;-80
2024/03/23 03:49:28;;;;;;;6.03;1.30;;;6.70;99.90;;;;;;4989657;28;20093;-80
2024/03/23 03:51:53;;;;;;;4.32;1.13;;;6.60;99.90;;;;;;4991376;28;20034;-81
2024/03/23 03:54:20;;;;;;;8.55;1.55;;;6.60;99.90;;;;;;4970833;28;20471;-81
2024/03/23 03:56:46;;;;;;;6.63;1.13;;;6.50;99.90;;;;;;4991145;28;20412;-80
2024/03/23 03:59:12;;;;;;;2.45;0.70;;;6.50;99.90;;;;;;4974362;28;20026;-80
2024/03/23 04:01:37;;;;;;;5.15;1.05;;;6.50;99.90;;;;;;4960239;28;20025;-80
2024/03/23 04:04:03;;;;;;;4.53;1.20;;;6.50;99.90;;;;;;4955104;28;20042;-80
2024/03/23 04:06:29;;;;;;;2.15;1.00;;;6.50;99.90;;;;;;4972513;28;20065;-80
2024/03/23 04:08:54;;;;;;;7.25;1.63;;;6.50;99.90;;;;;;4971483;28;20034;-80
2024/03/23 04:11:20;;;;;;;5.07;1.38;;;6.40;99.90;;;;;;4988446;28;20377;-80
2024/03/23 04:13:45;;;;;;;16.92;2.38;;;6.50;99.90;;;;;;4990969;28;20030;-79
2024/03/23 04:16:11;;;;;;;5.35;1.50;;;6.50;99.90;;;;;;4985686;28;20037;-80
2024/03/23 04:18:36;;;;;;;11.95;2.20;;;6.50;99.90;;;;;;4972569;28;20051;-80
2024/03/23 04:21:02;;;;;;;8.07;2.42;;;6.50;99.90;;;;;;4987694;28;20534;-80
2024/03/23 04:23:28;;;;;;;9.73;2.75;;;6.50;99.90;;;;;;4986213;28;20057;-80
2024/03/23 04:25:54;;;;;;;10.27;2.00;;;6.50;99.90;;;;;;4989277;28;20105;-80
2024/03/23 04:28:20;;;;;;;7.60;2.08;;;6.40;99.90;;;;;;4969995;28;20038;-80
2024/03/23 04:30:45;;;;;;;6.88;2.03;;;6.40;99.90;;;;;;4982199;28;20027;-79
2024/03/23 04:33:11;;;;;;;2.55;0.88;;;6.40;99.90;;;;;;4989339;28;20038;-80
2024/03/23 04:35:36;;;;;;;6.93;1.30;;;6.40;99.90;;;;;;4980162;28;20029;-80
2024/03/23 04:38:02;;;;;;;9.35;2.00;;;6.40;99.90;;;;;;4973774;28;20030;-80
2024/03/23 04:40:27;;;;;;;5.55;1.45;;;6.40;99.90;;;;;;4971014;28;20093;-80
2024/03/23 04:42:53;;;;;;;4.72;1.60;;;6.40;99.90;;;;;;4987629;28;20026;-80
2024/03/23 04:45:18;;;;;;;3.30;1.02;;;6.40;99.90;;;;;;4986353;28;20096;-80
2024/03/23 04:47:44;;;;;;;6.00;1.67;;;6.30;99.90;;;;;;4987513;28;20113;-79
2024/03/23 04:50:12;;;;;;;13.10;2.10;;;6.20;99.90;;;;;;4987903;28;20382;-81
2024/03/23 04:52:38;;;;;;;3.92;0.57;;;6.30;99.90;;;;;;4975993;28;20069;-81
2024/03/23 04:55:03;;;;;;;5.97;1.65;;;6.20;99.90;;;;;;4981116;28;20542;-80
2024/03/23 04:57:29;;;;;;;3.90;1.17;;;6.20;99.90;;;;;;4988044;28;20469;-80
2024/03/23 04:59:55;;;;;;;9.50;2.00;;;6.30;99.90;;;;;;4974133;28;20080;-81
2024/03/23 05:02:20;;;;;;;3.40;1.08;;;6.20;99.90;;;;;;4971995;28;20033;-80
2024/03/23 05:04:46;;;;;;;5.45;1.35;;;6.20;99.90;;;;;;4988848;28;20030;-79
2024/03/23 05:07:11;;;;;;;3.42;1.63;;;6.30;99.90;;;;;;4974918;28;20035;-80
2024/03/23 05:09:37;;;;;;;9.15;1.50;;;6.30;99.90;;;;;;4969776;28;20034;-79
2024/03/23 05:12:03;;;;;;;4.13;1.50;;;6.20;99.90;;;;;;4986931;28;20038;-80
2024/03/23 05:14:28;;;;;;;7.93;1.70;;;6.20;99.90;;;;;;4986504;28;20030;-80
2024/03/23 05:16:54;;;;;;;4.28;1.20;;;6.30;99.90;;;;;;4972321;28;20388;-80
2024/03/23 05:19:19;;;;;;;2.90;1.58;;;6.40;99.90;;;;;;4987185;28;20034;-80
2024/03/23 05:21:45;;;;;;;5.40;2.28;;;6.30;99.90;;;;;;4988845;28;20054;-80
2024/03/23 05:24:11;;;;;;;9.45;3.25;;;6.20;99.90;;;;;;4973858;28;20510;-80
2024/03/23 05:26:37;;;;;;;9.88;3.38;;;6.20;99.90;;;;;;4987249;28;20034;-80
2024/03/23 05:29:03;;;;;;;8.30;2.78;;;6.20;99.90;;;;;;4971769;28;21267;-80
2024/03/23 05:31:30;;;;;;;9.45;3.03;;;6.20;99.90;;;;;;4969881;28;20815;-81
2024/03/23 05:33:57;;;;;;;12.23;3.50;;;6.20;99.90;;;;;;4984055;28;20034;-81
2024/03/23 05:36:24;;;;;;;4.43;2.10;;;6.10;99.90;;;;;;4971225;28;20038;-80
2024/03/23 05:38:49;;;;;;;9.85;2.50;;;6.10;99.90;;;;;;4987776;28;20484;-80
2024/03/23 05:41:15;;;;;;;4.28;1.40;;;6.10;99.90;;;;;;4974214;28;20065;-80
2024/03/23 05:43:40;;;;;;;6.47;2.83;;;6.00;99.90;;;;;;4989966;28;20125;-79
2024/03/23 05:46:07;;;;;;;8.73;3.67;;;6.10;99.90;;;;;;4990702;28;20038;-80
2024/03/23 05:48:33;;;;;;;11.65;3.60;;;6.20;99.90;;;;;;4985325;28;20574;-80
2024/03/23 05:50:58;;;;;;;3.03;1.95;;;6.10;99.90;;;;;;4988253;28;20048;-80
2024/03/23 05:53:24;;;;;;;12.32;3.78;;;6.10;99.90;;;;;;4994881;28;20444;-81
2024/03/23 05:55:50;;;;;;;3.33;2.22;;;6.20;99.90;;;;;;4988472;28;20038;-80
2024/03/23 05:58:16;;;;;;;4.18;2.13;;;6.20;99.90;;;;;;4972257;28;20484;-80
2024/03/23 06:00:42;;;;;;;9.35;3.35;;;6.10;99.90;;;;;;4984823;28;20096;-80
2024/03/23 06:03:08;;;;;;;6.95;2.60;;;6.20;99.90;;;;;;4985402;28;20539;-81
2024/03/23 06:05:35;;;;;;;5.18;3.17;;;6.20;99.90;;;;;;4969317;28;20038;-80
2024/03/23 06:08:00;;;;;;;18.33;5.57;;;6.20;99.90;;;;;;4986493;28;20026;-80
2024/03/23 06:10:26;;;;;;;14.85;5.55;;;6.20;99.90;;;;;;4985313;28;20045;-80
2024/03/23 06:12:52;;;;;;;8.63;2.90;;;6.20;99.90;;;;;;4985164;28;20404;-80
2024/03/23 06:15:18;;;;;;;13.60;6.95;;;6.20;99.90;;;;;;4994467;28;20384;-80
2024/03/23 06:17:46;;;;;;;16.48;8.30;;;6.20;99.90;;;;;;4970817;28;20084;-80
2024/03/23 06:20:12;;;;;;;13.55;5.00;;;6.20;99.90;;;;;;4986332;28;22048;-79
2024/03/23 06:22:45;;;;;;;15.75;6.55;;;6.30;99.90;;;;;;4988339;28;20392;-80
2024/03/23 06:25:12;;;;;;;11.00;3.90;;;6.20;99.90;;;;;;4982706;28;20038;-79
2024/03/23 06:27:40;;;;;;;7.22;3.42;;;6.20;99.90;;;;;;4975276;28;20029;-79
2024/03/23 06:30:07;;;;;;;19.08;9.57;;;6.30;99.90;;;;;;4985823;28;20073;-79
2024/03/23 06:32:33;;;;;;;13.00;5.90;;;6.20;99.90;;;;;;4986353;28;20136;-79
2024/03/23 06:34:59;;;;;;;14.63;7.05;;;6.20;99.90;;;;;;4990282;28;20492;-80
2024/03/23 06:37:25;;;;;;;16.67;7.93;;;6.30;99.90;;;;;;4956973;28;20081;-80
2024/03/23 06:39:51;;;;;;;9.77;5.97;;;6.30;99.90;;;;;;4987892;28;20062;-79
2024/03/23 06:42:17;;;;;;;15.90;8.57;;;6.30;99.90;;;;;;4989739;28;20043;-79
2024/03/23 06:44:43;;;;;;;13.05;6.78;;;6.20;99.90;;;;;;4991109;28;20400;-79
2024/03/23 06:47:08;;;;;;;9.82;5.38;;;6.30;99.90;;;;;;4965695;28;20640;-79
2024/03/23 06:49:41;;;;;;;13.95;5.43;;;6.30;99.90;;;;;;4986967;28;20027;-80
2024/03/23 06:52:06;;;;;;;18.52;8.90;;;6.40;99.90;;;;;;4973346;28;20121;-80
2024/03/23 06:54:32;;;;;;;23.45;12.20;;;6.40;99.90;;;;;;4991963;28;20456;-80
2024/03/23 06:56:57;;;;;;;9.75;4.75;;;6.40;99.90;;;;;;4989789;28;20057;-79
2024/03/23 06:59:23;;;;;;;13.40;7.75;;;6.40;99.90;;;;;;4993334;28;20775;-79
2024/03/23 07:01:48;;;;;;;7.50;3.08;;;6.40;99.90;;;;;;4988280;28;20738;-78
2024/03/23 07:04:14;;;;;;;10.27;5.88;;;6.50;99.90;;;;;;4970625;28;20054;-80
2024/03/23 07:06:45;;;;;;;14.77;4.95;;;6.60;99.90;;;;;;4985603;28;20038;-79
2024/03/23 07:09:10;;;;;;;16.58;6.75;;;6.70;99.90;;;;;;4990275;28;20088;-78
2024/03/23 07:11:36;;;;;;;15.23;8.25;;;6.60;99.90;;;;;;4990109;28;20468;-78
2024/03/23 07:14:02;;;;;;;18.13;9.55;;;6.70;99.90;;;;;;4971433;28;20038;-78
2024/03/23 07:16:28;;;;;;;18.42;7.72;;;6.80;99.90;;;;;;4974838;28;20137;-80
2024/03/23 07:18:56;;;;;;;21.23;9.73;;;6.80;99.90;;;;;;4989969;28;20173;-80
2024/03/23 07:21:22;;;;;;;23.58;10.70;;;6.80;99.90;;;;;;4992271;28;20030;-81
2024/03/23 07:23:47;;;;;;;20.55;7.47;;;6.70;99.90;;;;;;4971732;28;20373;-81
2024/03/23 07:26:13;;;;;;;19.67;7.85;;;6.80;99.90;;;;;;4956729;28;20070;-79
2024/03/23 07:28:43;;;;;;;10.52;5.72;;;6.90;99.90;;;;;;4982788;28;20051;-79
2024/03/23 07:31:12;;;;;;;16.73;8.13;;;6.90;99.90;;;;;;4985562;28;20811;-79
2024/03/23 07:33:45;;;;;;;26.20;10.90;;;7.00;99.90;;;;;;4990956;28;20089;-79
2024/03/23 07:36:11;;;;;;;25.45;11.70;;;7.00;99.90;;;;;;4987745;28;20121;-79
2024/03/23 07:38:36;;;;;;;8.75;5.38;;;7.10;99.90;;;;;;4975050;28;20479;-79
2024/03/23 07:41:09;;;;;;;19.58;7.90;;;7.10;99.90;;;;;;4986205;28;20037;-79
2024/03/23 07:43:35;;;;;;;16.30;6.55;;;7.10;99.90;;;;;;4989517;28;20042;-79
2024/03/23 07:46:00;;;;;;;14.25;6.97;;;7.20;99.90;;;;;;4970429;28;20035;-79
2024/03/23 07:48:26;;;;;;;6.72;4.32;;;7.20;99.90;;;;;;4992275;28;20056;-79
2024/03/23 07:51:04;;;;;;;14.15;5.78;;;7.30;99.90;;;;;;4954837;28;20053;-79
2024/03/23 07:53:30;;;;;;;20.88;8.13;;;7.40;99.90;;;;;;4993483;28;20061;-79
2024/03/23 07:55:57;;;;;;;13.48;6.97;;;7.50;99.90;;;;;;5002546;28;20038;-79
2024/03/23 07:58:22;;;;;;;13.55;5.78;;;7.60;99.90;;;;;;4976267;28;20503;-80
2024/03/23 08:00:48;;;;;;;13.68;6.35;;;7.60;99.90;;;;;;4989310;28;20057;-80
2024/03/23 08:03:14;;;;;;;19.83;7.45;;;7.80;99.90;;;;;;4996230;28;20041;-80
2024/03/23 08:05:40;;;;;;;23.30;9.15;;;7.80;99.90;;;;;;5011911;28;20076;-80
2024/03/23 08:08:06;;;;;;;17.77;7.32;;;7.90;99.90;;;;;;4989951;28;20068;-80
2024/03/23 08:10:31;;;;;;;3.70;2.00;;;8.00;99.90;;;;;;5011396;28;20415;-80
2024/03/23 08:12:58;;;;;;;18.85;6.63;;;8.00;99.90;;;;;;4987650;28;20057;-80
2024/03/23 08:15:24;;;;;;;9.73;4.93;;;8.30;99.90;;;;;;4974955;28;20109;-82
2024/03/23 08:17:50;;;;;;;12.60;3.60;;;8.30;99.90;;;;;;4985855;28;20454;-81
2024/03/23 08:20:15;;;;;;;16.48;7.25;;;8.60;99.90;;;;;;4991253;28;20044;-82
2024/03/23 08:22:41;;;;;;;18.00;5.82;;;8.60;99.90;;;;;;5006920;28;20037;-82
2024/03/23 08:25:06;;;;;;;7.25;3.47;;;8.80;99.90;;;;;;5003711;28;20030;-80
2024/03/23 08:27:32;;;;;;;14.65;5.57;;;9.00;99.90;;;;;;5006086;28;20037;-80
2024/03/23 08:29:58;;;;;;;7.47;3.75;;;9.20;99.90;;;;;;4990794;28;20037;-80
2024/03/23 08:32:24;;;;;;;9.20;4.88;;;9.30;99.90;;;;;;4997614;28;20518;-80
2024/03/23 08:34:49;;;;;;;16.10;5.38;;;9.30;99.90;;;;;;4989765;28;20022;-80
2024/03/23 08:37:15;;;;;;;9.77;3.30;;;9.30;99.90;;;;;;4994370;28;20430;-80
2024/03/23 08:39:43;;;;;;;23.42;6.25;;;9.30;99.90;;;;;;4981949;28;20161;-79
2024/03/23 08:42:08;;;;;;;7.60;3.60;;;9.30;99.90;;;;;;4956224;28;20088;-80
2024/03/23 08:44:34;;;;;;;15.13;4.95;;;9.30;99.90;;;;;;5007873;28;20029;-80
2024/03/23 08:46:59;;;;;;;13.15;5.00;;;9.40;99.90;;;;;;4991585;28;20195;-80
2024/03/23 08:49:25;;;;;;;9.82;4.47;;;9.50;99.90;;;;;;4985599;28;20025;-80
2024/03/23 08:51:51;;;;;;;14.70;4.47;;;9.60;99.90;;;;;;5010926;28;20030;-80
2024/03/23 08:54:20;;;;;;;13.35;3.17;;;9.70;99.90;;;;;;4979801;28;20595;-80
2024/03/23 08:56:45;;;;;;;14.50;5.10;;;9.70;99.90;;;;;;4986959;28;20550;-80
2024/03/23 08:59:11;;;;;;;13.32;4.10;;;9.60;99.90;;;;;;4983765;28;20062;-80
2024/03/23 09:01:38;;;;;;;14.23;4.10;;;9.60;99.90;;;;;;4986617;28;20508;-80
2024/03/23 09:04:04;;;;;;;13.93;3.13;;;9.50;99.90;;;;;;4979074;28;20622;-80
2024/03/23 09:06:29;;;;;;;5.80;2.65;;;9.30;99.90;;;;;;4955007;28;20042;-80
2024/03/23 09:08:55;;;;;;;9.93;2.92;;;9.10;99.90;;;;;;4967778;28;20030;-80
2024/03/23 09:11:22;;;;;;;9.90;3.10;;;9.00;99.90;;;;;;4972357;28;20038;-80
2024/03/23 09:13:47;;;;;;;5.25;1.90;;;8.90;99.90;;;;;;4969469;28;20442;-81
2024/03/23 09:16:13;;;;;;;4.50;1.55;;;8.80;99.90;;;;;;4972579;28;20069;-79
2024/03/23 09:18:39;;;;;;;1.73;1.30;;;8.70;99.90;;;;;;4971387;28;20440;-79
2024/03/23 09:21:11;;;;;;;9.73;2.42;;;8.60;99.90;;;;;;4969448;28;20053;-80
2024/03/23 09:23:37;;;;;;;4.22;2.22;;;8.40;99.90;;;;;;4987935;28;20114;-78
2024/03/23 09:26:07;;;;;;;4.65;1.80;;;8.40;99.90;;;;;;4967926;28;20117;-79
2024/03/23 09:28:36;;;;;;;5.05;1.35;;;8.40;99.90;;;;;;4973397;28;20035;-79
2024/03/23 09:31:06;;;;;;;2.90;1.65;;;8.50;99.90;;;;;;4977943;28;20042;-79
2024/03/23 09:33:33;;;;;;;6.00;2.30;;;8.30;99.90;;;;;;4978347;28;20034;-79
2024/03/23 09:35:59;;;;;;;3.50;1.45;;;8.20;99.90;;;;;;4955421;28;20451;-79
2024/03/23 09:38:31;;;;;;;4.80;1.95;;;8.30;99.90;;;;;;4987139;28;20057;-79
2024/03/23 09:40:57;;;;;;;5.43;2.97;;;8.30;99.90;;;;;;4971005;28;20034;-79
2024/03/23 09:43:22;;;;;;;11.43;4.10;;;8.50;99.90;;;;;;4970523;28;20043;-79
2024/03/23 09:45:48;;;;;;;13.48;4.60;;;8.60;99.90;;;;;;4964859;28;20035;-78
2024/03/23 09:48:14;;;;;;;7.55;2.80;;;8.70;99.90;;;;;;4982582;28;20635;-79
2024/03/23 09:50:43;;;;;;;12.23;3.97;;;8.80;99.90;;;;;;4963261;28;20049;-80
2024/03/23 09:53:12;;;;;;;14.68;3.88;;;8.90;99.90;;;;;;4989226;28;20443;-80
2024/03/23 09:55:39;;;;;;;7.55;3.22;;;8.90;99.90;;;;;;4982356;28;20519;-80
2024/03/23 09:58:08;;;;;;;9.93;3.78;;;9.10;99.90;;;;;;4987886;28;20087;-80
2024/03/23 10:00:34;;;;;;;9.05;2.80;;;9.40;99.90;;;;;;4989495;28;20065;-79
2024/03/23 10:03:02;;;;;;;6.20;2.83;;;9.40;99.90;;;;;;4961371;28;20495;-80
2024/03/23 10:05:36;;;;;;;8.65;2.47;;;9.70;99.90;;;;;;4975154;28;20060;-80
2024/03/23 10:08:18;;;;;;;8.93;2.80;;;9.60;99.90;;;;;;4976488;28;20046;-79
2024/03/23 10:10:43;;;;;;;2.75;1.20;;;9.60;99.90;;;;;;4980542;28;20046;-80
2024/03/23 10:13:09;;;;;;;3.95;1.77;;;9.90;99.90;;;;;;4987299;28;20049;-80
2024/03/23 10:15:35;;;;;;;5.90;2.45;;;10.00;99.90;;;;;;4988685;28;20045;-80
2024/03/23 10:18:18;;;;;;;4.90;1.77;;;9.90;99.90;;;;;;4955717;28;20130;-80
2024/03/23 10:20:50;;;;;;;13.93;2.47;;;9.90;99.90;;;;;;4974628;28;20042;-79
2024/03/23 10:23:16;;;;;;;7.97;1.88;;;10.10;99.90;;;;;;4984429;28;20046;-79
2024/03/23 10:25:42;;;;;;;5.38;2.05;;;9.80;99.90;;;;;;4988824;28;20380;-80
2024/03/23 10:28:09;;;;;;;7.13;1.80;;;9.80;99.90;;;;;;4969182;28;20074;-80
2024/03/23 10:30:35;;;;;;;6.25;1.70;;;9.80;99.90;;;;;;4958409;28;20029;-80
2024/03/23 10:33:10;;;;;;;4.40;1.35;;;9.90;99.90;;;;;;4971027;28;20038;-80
2024/03/23 10:35:36;;;;;;;8.70;1.27;;;9.90;99.90;;;;;;4974192;28;20518;-80
2024/03/23 10:38:06;;;;;;;4.13;1.23;;;9.80;99.90;;;;;;4971645;28;20345;-80
2024/03/23 10:40:39;;;;;;;2.45;1.38;;;9.70;99.90;;;;;;4978077;28;20042;-80
2024/03/23 10:43:05;;;;;;;2.83;1.10;;;9.90;99.90;;;;;;4989647;28;20093;-80
2024/03/23 10:45:30;;;;;;;5.63;1.35;;;10.10;99.90;;;;;;4986655;28;20424;-80
2024/03/23 10:47:56;;;;;;;5.28;1.73;;;10.40;99.90;;;;;;4977915;28;20031;-77
2024/03/23 10:50:22;;;;;;;11.70;1.75;;;10.50;99.90;;;;;;4970828;28;20173;-79
2024/03/23 10:52:48;;;;;;;7.03;1.73;;;10.50;99.90;;;;;;4986840;28;20696;-79
2024/03/23 10:55:15;;;;;;;4.65;1.20;;;10.60;99.90;;;;;;4955318;28;20077;-78
2024/03/23 10:57:43;;;;;;;3.72;1.00;;;9.90;99.90;;;;;;4975898;28;20121;-77
2024/03/23 11:00:10;;;;;;;1.77;0.73;;;9.10;99.90;;;;;;4987252;28;20078;-78
2024/03/23 11:02:36;;;;;;;2.30;0.57;;;8.30;99.90;;;;;;4961746;28;20034;-78
2024/03/23 11:05:01;;;;;;;2.10;0.85;;;8.00;99.90;;;;;;4986157;28;20045;-78
2024/03/23 11:07:31;;;;;;;0.95;0.50;;;7.90;99.90;;;;;;4966371;28;20092;-78
2024/03/23 11:09:57;;;;;;;1.75;0.55;;;7.70;99.90;;;;;;4987172;28;20037;-79
2024/03/23 11:12:23;;;;;;;1.75;0.45;;;7.60;99.90;;;;;;4989982;28;20038;-78
2024/03/23 11:15:08;;;;;;;2.33;0.60;;;7.50;99.90;;;;;;4989250;28;20042;-78
2024/03/23 11:17:34;;;;;;;0.63;0.43;;;7.60;99.90;;;;;;4985877;28;20038;-78
2024/03/23 11:20:03;;;;;;;1.02;0.63;;;7.70;99.90;;;;;;4972424;28;20516;-78
2024/03/23 11:22:40;;;;;;;2.15;0.50;;;7.70;99.90;;;;;;4991925;28;20042;-78
2024/03/23 11:25:26;;;;;;;1.67;0.47;;;7.80;99.90;;;;;;4993562;28;20026;-78
2024/03/23 11:28:11;;;;;;;6.90;0.85;;;7.70;99.90;;;;;;4984599;28;20119;-78
2024/03/23 11:30:38;;;;;;;1.42;0.65;;;7.80;99.90;;;;;;4969085;28;20065;-78
2024/03/23 11:33:04;;;;;;;1.85;1.00;;;7.90;99.90;;;;;;4992552;28;20030;-77
2024/03/23 11:35:33;;;;;;;0.82;0.52;;;8.20;99.90;;;;;;4973440;28;20038;-76
2024/03/23 11:38:02;;;;;;;2.00;1.10;;;8.20;99.90;;;;;;4989055;28;20113;-76
2024/03/23 11:40:29;;;;;;;4.70;1.30;;;8.40;99.90;;;;;;4974122;28;20031;-76
2024/03/23 11:43:01;;;;;;;2.40;0.80;;;8.60;99.90;;;;;;4988513;28;20046;-75
2024/03/23 11:45:27;;;;;;;4.43;1.48;;;8.70;99.90;;;;;;4973494;28;20404;-77
2024/03/23 11:48:12;;;;;;;6.60;2.03;;;8.90;99.90;;;;;;4987491;28;20034;-75
2024/03/23 11:50:41;;;;;;;8.23;2.30;;;9.10;99.90;;;;;;4985264;28;20526;-75
2024/03/23 11:53:16;;;;;;;2.95;1.48;;;9.30;99.90;;;;;;4972946;28;20035;-76
2024/03/23 11:55:46;;;;;;;2.97;1.23;;;9.20;99.90;;;;;;4986905;28;20038;-76
2024/03/23 11:58:12;;;;;;;6.30;1.30;;;9.40;99.90;;;;;;4988125;28;20512;-76
2024/03/23 12:00:37;;;;;;;5.32;1.73;;;9.70;99.90;;;;;;4984903;28;20054;-76
2024/03/23 12:03:03;;;;;;;3.30;1.33;;;9.70;99.90;;;;;;4975718;28;20034;-77
2024/03/23 12:05:29;;;;;;;3.47;1.30;;;10.00;99.90;;;;;;4954403;28;20057;-76
2024/03/23 12:07:55;;;;;;;3.80;1.80;;;9.90;99.90;;;;;;4975293;28;20044;-77
2024/03/23 12:10:21;;;;;;;4.97;1.25;;;9.90;99.90;;;;;;4990457;28;20034;-76
2024/03/23 12:12:46;;;;;;;3.10;1.40;;;9.80;99.90;;;;;;4972542;28;20030;-76
2024/03/23 12:15:13;;;;;;;2.88;1.20;;;10.00;99.90;;;;;;4972307;28;20064;-76
2024/03/23 12:17:38;;;;;;;1.40;0.90;;;10.30;99.90;;;;;;4972595;28;20031;-76
2024/03/23 12:20:04;;;;;;;1.02;0.47;;;10.20;99.90;;;;;;5002287;28;20077;-76
2024/03/23 12:22:31;;;;;;;1.10;0.55;;;10.10;99.90;;;;;;4983192;28;20042;-76
2024/03/23 12:24:57;;;;;;;0.57;0.28;;;10.00;99.90;;;;;;4974191;28;20102;-77
2024/03/23 12:27:22;;;;;;;2.25;0.63;;;9.90;99.90;;;;;;4994512;28;20030;-76
2024/03/23 12:29:48;;;;;;;2.58;0.75;;;9.80;99.90;;;;;;4982473;28;20030;-76
2024/03/23 12:32:14;;;;;;;1.70;0.30;;;9.80;99.90;;;;;;4990970;28;20050;-76
2024/03/23 12:34:39;;;;;;;0.98;0.25;;;9.60;99.90;;;;;;4975132;28;20483;-77
2024/03/23 12:37:09;;;;;;;0.90;0.40;;;9.70;99.90;;;;;;4985851;28;20030;-76
2024/03/23 12:39:35;;;;;;;1.15;0.38;;;9.70;99.90;;;;;;4989834;28;20442;-75
2024/03/23 12:42:02;;;;;;;3.53;0.70;;;9.60;99.90;;;;;;4990845;28;20019;-77
2024/03/23 12:44:28;;;;;;;0.45;0.38;;;9.80;99.90;;;;;;4984929;28;20561;-80
2024/03/23 12:46:53;;;;;;;0.50;0.50;;;9.70;99.90;;;;;;4970345;28;20035;-79
2024/03/23 12:49:19;;;;;;;1.13;0.60;;;9.80;99.90;;;;;;4985837;28;20053;-80